sensor_id;sensor_type;location;lat;lon;timestamp;pressure;altitude;pressure_sealevel;temperature;humidity
29169;BME280;16219;42.864;23.360;2022-11-30T00:00:36;96054.59;;;4.12;100.00
29169;BME280;16219;42.864;23.360;2022-11-30T00:03:05;96047.53;;;4.13;100.00
29169;BME280;16219;42.864;23.360;2022-11-30T00:05:32;96063.69;;;4.20;100.00
29169;BME280;16219;42.864;23.360;2022-11-30T00:08:00;96058.47;;;4.20;100.00
29169;BME280;16219;42.864;23.360;2022-11-30T00:10:27;96060.56;;;4.23;100.00
29169;BME280;16219;42.864;23.360;2022-11-30T00:12:54;96062.13;;;4.19;100.00
29169;BME280;16219;42.864;23.360;2022-11-30T00:15:21;96060.56;;;4.18;100.00
29169;BME280;16219;42.864;23.360;2022-11-30T00:17:48;96070.50;;;4.21;100.00
29169;BME280;16219;42.864;23.360;2022-11-30T00:20:16;96069.72;;;4.15;100.00
29169;BME280;16219;42.864;23.360;2022-11-30T00:22:43;96075.47;;;4.12;100.00
29169;BME280;16219;42.864;23.360;2022-11-30T00:25:10;96072.59;;;4.14;100.00
29169;BME280;16219;42.864;23.360;2022-11-30T00:27:37;96078.34;;;4.21;100.00
29169;BME280;16219;42.864;23.360;2022-11-30T00:30:05;96077.78;;;4.24;100.00
29169;BME280;16219;42.864;23.360;2022-11-30T00:32:33;96078.31;;;4.31;100.00
29169;BME280;16219;42.864;23.360;2022-11-30T00:35:00;96075.19;;;4.34;100.00
29169;BME280;16219;42.864;23.360;2022-11-30T00:37:28;96084.06;;;4.23;100.00
29169;BME280;16219;42.864;23.360;2022-11-30T00:39:55;96081.75;;;4.16;100.00
29169;BME280;16219;42.864;23.360;2022-11-30T00:42:22;96084.09;;;4.13;100.00
29169;BME280;16219;42.864;23.360;2022-11-30T00:44:49;96086.16;;;4.16;100.00
29169;BME280;16219;42.864;23.360;2022-11-30T00:47:16;96080.94;;;4.11;100.00
29169;BME280;16219;42.864;23.360;2022-11-30T00:49:43;96074.69;;;3.91;100.00
29169;BME280;16219;42.864;23.360;2022-11-30T00:52:10;96073.88;;;3.86;100.00
29169;BME280;16219;42.864;23.360;2022-11-30T00:54:39;96069.44;;;3.76;100.00
29169;BME280;16219;42.864;23.360;2022-11-30T00:57:06;96072.03;;;3.81;100.00
29169;BME280;16219;42.864;23.360;2022-11-30T00:59:33;96062.94;;;3.79;100.00
29169;BME280;16219;42.864;23.360;2022-11-30T01:02:00;96062.38;;;3.82;100.00
29169;BME280;16219;42.864;23.360;2022-11-30T01:04:27;96063.44;;;3.81;100.00
29169;BME280;16219;42.864;23.360;2022-11-30T01:06:54;96064.75;;;3.88;100.00
29169;BME280;16219;42.864;23.360;2022-11-30T01:09:21;96022.47;;;3.66;100.00
29169;BME280;16219;42.864;23.360;2022-11-30T01:11:50;96062.66;;;3.90;100.00
29169;BME280;16219;42.864;23.360;2022-11-30T01:14:17;96051.72;;;3.78;100.00
29169;BME280;16219;42.864;23.360;2022-11-30T01:16:44;96054.56;;;3.82;100.00
29169;BME280;16219;42.864;23.360;2022-11-30T01:19:11;96057.69;;;3.73;100.00
29169;BME280;16219;42.864;23.360;2022-11-30T01:21:38;96048.56;;;3.66;100.00
29169;BME280;16219;42.864;23.360;2022-11-30T01:24:06;96055.34;;;3.72;100.00
29169;BME280;16219;42.864;23.360;2022-11-30T01:26:35;96054.28;;;3.73;100.00
29169;BME280;16219;42.864;23.360;2022-11-30T01:29:03;96050.66;;;3.79;100.00
29169;BME280;16219;42.864;23.360;2022-11-30T01:31:31;96054.31;;;3.88;100.00
29169;BME280;16219;42.864;23.360;2022-11-30T01:33:58;96047.00;;;3.90;100.00
29169;BME280;16219;42.864;23.360;2022-11-30T01:36:26;96048.31;;;3.88;100.00
29169;BME280;16219;42.864;23.360;2022-11-30T01:38:54;96043.88;;;3.83;100.00
29169;BME280;16219;42.864;23.360;2022-11-30T01:41:23;96043.88;;;3.88;100.00
29169;BME280;16219;42.864;23.360;2022-11-30T01:43:52;96043.59;;;3.95;100.00
29169;BME280;16219;42.864;23.360;2022-11-30T01:46:25;96048.03;;;3.94;100.00
29169;BME280;16219;42.864;23.360;2022-11-30T01:49:00;96039.69;;;3.92;100.00
29169;BME280;16219;42.864;23.360;2022-11-30T01:51:31;96054.84;;;3.95;100.00
29169;BME280;16219;42.864;23.360;2022-11-30T01:54:01;96050.69;;;3.99;100.00
29169;BME280;16219;42.864;23.360;2022-11-30T01:56:28;96047.28;;;4.09;100.00
29169;BME280;16219;42.864;23.360;2022-11-30T01:58:56;96047.78;;;4.01;100.00
29169;BME280;16219;42.864;23.360;2022-11-30T02:01:25;96044.66;;;3.89;100.00
29169;BME280;16219;42.864;23.360;2022-11-30T02:03:55;96048.31;;;3.88;100.00
29169;BME280;16219;42.864;23.360;2022-11-30T02:06:25;96055.63;;;3.91;100.00
29169;BME280;16219;42.864;23.360;2022-11-30T02:08:54;96020.63;;;3.76;100.00
29169;BME280;16219;42.864;23.360;2022-11-30T02:11:21;96040.75;;;3.91;100.00
29169;BME280;16219;42.864;23.360;2022-11-30T02:14:09;96029.00;;;3.79;100.00
29169;BME280;16219;42.864;23.360;2022-11-30T02:16:48;96037.34;;;3.81;100.00
29169;BME280;16219;42.864;23.360;2022-11-30T02:22:45;96023.00;;;3.93;100.00
29169;BME280;16219;42.864;23.360;2022-11-30T02:25:19;96009.97;;;3.78;100.00
29169;BME280;16219;42.864;23.360;2022-11-30T02:28:06;96022.22;;;3.83;100.00
29169;BME280;16219;42.864;23.360;2022-11-30T02:30:36;96027.16;;;3.89;100.00
29169;BME280;16219;42.864;23.360;2022-11-30T02:33:09;96025.59;;;3.88;100.00
29169;BME280;16219;42.864;23.360;2022-11-30T02:35:41;96024.81;;;3.88;100.00
29169;BME280;16219;42.864;23.360;2022-11-30T02:38:10;96025.06;;;3.81;100.00
29169;BME280;16219;42.864;23.360;2022-11-30T02:40:38;96025.63;;;3.83;100.00
29169;BME280;16219;42.864;23.360;2022-11-30T02:43:06;96021.44;;;3.92;100.00
29169;BME280;16219;42.864;23.360;2022-11-30T02:45:40;96023.00;;;3.93;100.00
29169;BME280;16219;42.864;23.360;2022-11-30T02:48:10;96020.66;;;3.92;100.00
29169;BME280;16219;42.864;23.360;2022-11-30T02:50:42;96034.47;;;4.03;100.00
29169;BME280;16219;42.864;23.360;2022-11-30T02:53:11;96037.59;;;4.10;100.00
29169;BME280;16219;42.864;23.360;2022-11-30T02:55:38;96035.50;;;4.12;100.00
29169;BME280;16219;42.864;23.360;2022-11-30T02:58:05;96037.59;;;4.10;100.00
29169;BME280;16219;42.864;23.360;2022-11-30T03:00:32;96033.16;;;4.05;100.00
29169;BME280;16219;42.864;23.360;2022-11-30T03:03:01;96032.13;;;4.01;100.00
29169;BME280;16219;42.864;23.360;2022-11-30T03:05:31;96018.03;;;4.02;100.00
29169;BME280;16219;42.864;23.360;2022-11-30T03:07:58;96030.28;;;4.17;100.00
29169;BME280;16219;42.864;23.360;2022-11-30T03:10:25;96022.69;;;4.20;100.00
29169;BME280;16219;42.864;23.360;2022-11-30T03:12:56;96030.28;;;4.07;100.00
29169;BME280;16219;42.864;23.360;2022-11-30T03:15:23;96029.50;;;4.06;100.00
29169;BME280;16219;42.864;23.360;2022-11-30T03:17:50;96029.25;;;4.08;100.00
29169;BME280;16219;42.864;23.360;2022-11-30T03:20:19;96033.41;;;4.19;100.00
29169;BME280;16219;42.864;23.360;2022-11-30T03:22:46;96029.78;;;4.10;100.00
29169;BME280;16219;42.864;23.360;2022-11-30T03:25:13;96032.38;;;4.15;100.00
29169;BME280;16219;42.864;23.360;2022-11-30T03:27:40;96028.47;;;4.12;100.00
29169;BME280;16219;42.864;23.360;2022-11-30T03:30:08;96033.69;;;4.17;100.00
29169;BME280;16219;42.864;23.360;2022-11-30T03:32:35;96031.56;;;4.24;100.00
29169;BME280;16219;42.864;23.360;2022-11-30T03:35:03;96030.78;;;4.34;100.00
29169;BME280;16219;42.864;23.360;2022-11-30T03:37:31;96030.00;;;4.34;100.00
29169;BME280;16219;42.864;23.360;2022-11-30T03:39:59;96035.47;;;4.37;100.00
29169;BME280;16219;42.864;23.360;2022-11-30T03:42:26;96038.09;;;4.42;100.00
29169;BME280;16219;42.864;23.360;2022-11-30T03:44:53;96033.66;;;4.38;100.00
29169;BME280;16219;42.864;23.360;2022-11-30T03:47:20;96030.25;;;4.42;100.00
29169;BME280;16219;42.864;23.360;2022-11-30T03:49:47;96033.38;;;4.39;100.00
29169;BME280;16219;42.864;23.360;2022-11-30T03:52:17;96038.88;;;4.43;100.00
29169;BME280;16219;42.864;23.360;2022-11-30T03:54:45;96036.28;;;4.38;100.00
29169;BME280;16219;42.864;23.360;2022-11-30T03:57:12;96038.09;;;4.42;100.00
29169;BME280;16219;42.864;23.360;2022-11-30T03:59:39;96031.56;;;4.40;100.00
29169;BME280;16219;42.864;23.360;2022-11-30T04:02:06;96033.13;;;4.41;100.00
29169;BME280;16219;42.864;23.360;2022-11-30T04:04:33;96035.72;;;4.41;100.00
29169;BME280;16219;42.864;23.360;2022-11-30T04:07:02;96033.91;;;4.36;100.00
29169;BME280;16219;42.864;23.360;2022-11-30T04:09:30;96042.53;;;4.37;100.00
29169;BME280;16219;42.864;23.360;2022-11-30T04:11:58;96047.50;;;4.38;100.00
29169;BME280;16219;42.864;23.360;2022-11-30T04:14:25;96039.13;;;4.41;100.00
29169;BME280;16219;42.864;23.360;2022-11-30T04:16:52;96047.47;;;4.48;100.00
29169;BME280;16219;42.864;23.360;2022-11-30T04:19:19;96048.25;;;4.49;100.00
29169;BME280;16219;42.864;23.360;2022-11-30T04:21:46;96044.88;;;4.43;100.00
29169;BME280;16219;42.864;23.360;2022-11-30T04:24:13;96038.31;;;4.46;100.00
29169;BME280;16219;42.864;23.360;2022-11-30T04:26:40;96048.50;;;4.53;100.00
29169;BME280;16219;42.864;23.360;2022-11-30T04:29:09;96041.19;;;4.49;100.00
29169;BME280;16219;42.864;23.360;2022-11-30T04:31:36;96049.03;;;4.49;100.00
29169;BME280;16219;42.864;23.360;2022-11-30T04:34:03;96052.97;;;4.47;100.00
29169;BME280;16219;42.864;23.360;2022-11-30T04:36:30;96054.81;;;4.36;100.00
29169;BME280;16219;42.864;23.360;2022-11-30T04:38:57;96059.22;;;4.46;100.00
29169;BME280;16219;42.864;23.360;2022-11-30T04:41:24;96056.38;;;4.47;100.00
29169;BME280;16219;42.864;23.360;2022-11-30T04:43:51;96061.06;;;4.50;100.00
29169;BME280;16219;42.864;23.360;2022-11-30T04:46:19;96062.88;;;4.45;100.00
29169;BME280;16219;42.864;23.360;2022-11-30T04:48:46;96065.75;;;4.48;100.00
29169;BME280;16219;42.864;23.360;2022-11-30T04:51:13;96060.00;;;4.41;100.00
29169;BME280;16219;42.864;23.360;2022-11-30T04:53:40;96028.47;;;4.17;100.00
29169;BME280;16219;42.864;23.360;2022-11-30T04:56:09;96050.66;;;4.30;100.00
29169;BME280;16219;42.864;23.360;2022-11-30T04:58:37;96054.28;;;4.39;100.00
29169;BME280;16219;42.864;23.360;2022-11-30T05:01:05;96061.59;;;4.42;100.00
29169;BME280;16219;42.864;23.360;2022-11-30T05:03:33;96042.81;;;4.25;100.00
29169;BME280;16219;42.864;23.360;2022-11-30T05:06:00;96066.81;;;4.47;100.00
29169;BME280;16219;42.864;23.360;2022-11-30T05:08:28;96065.78;;;4.38;100.00
29169;BME280;16219;42.864;23.360;2022-11-30T05:10:55;96066.56;;;4.44;100.00
29169;BME280;16219;42.864;23.360;2022-11-30T05:13:25;96063.41;;;4.47;100.00
29169;BME280;16219;42.864;23.360;2022-11-30T05:15:54;96073.06;;;4.41;100.00
29169;BME280;16219;42.864;23.360;2022-11-30T05:18:21;96080.13;;;4.46;100.00
29169;BME280;16219;42.864;23.360;2022-11-30T05:20:50;96069.44;;;4.37;100.00
29169;BME280;16219;42.864;23.360;2022-11-30T05:23:19;96067.34;;;4.39;100.00
29169;BME280;16219;42.864;23.360;2022-11-30T05:25:46;96073.34;;;4.45;100.00
29169;BME280;16219;42.864;23.360;2022-11-30T05:28:14;96079.88;;;4.47;100.00
29169;BME280;16219;42.864;23.360;2022-11-30T05:30:42;96074.91;;;4.46;100.00
29169;BME280;16219;42.864;23.360;2022-11-30T05:33:09;96079.34;;;4.45;100.00
29169;BME280;16219;42.864;23.360;2022-11-30T05:35:36;96084.84;;;4.44;100.00
29169;BME280;16219;42.864;23.360;2022-11-30T05:38:06;96080.66;;;4.43;100.00
29169;BME280;16219;42.864;23.360;2022-11-30T05:40:33;96081.44;;;4.48;100.00
29169;BME280;16219;42.864;23.360;2022-11-30T05:43:01;96084.03;;;4.59;100.00
29169;BME280;16219;42.864;23.360;2022-11-30T05:45:29;96083.00;;;4.55;100.00
29169;BME280;16219;42.864;23.360;2022-11-30T05:47:56;96084.81;;;4.59;100.00
29169;BME280;16219;42.864;23.360;2022-11-30T05:50:23;96074.09;;;4.61;100.00
29169;BME280;16219;42.864;23.360;2022-11-30T05:52:51;96083.53;;;4.51;100.00
29169;BME280;16219;42.864;23.360;2022-11-30T05:55:23;96084.81;;;4.49;100.00
29169;BME280;16219;42.864;23.360;2022-11-30T05:57:50;96085.91;;;4.43;100.00
29169;BME280;16219;42.864;23.360;2022-11-30T06:00:18;96089.78;;;4.45;100.00
29169;BME280;16219;42.864;23.360;2022-11-30T06:02:46;96087.19;;;4.50;100.00
29169;BME280;16219;42.864;23.360;2022-11-30T06:05:14;96094.50;;;4.48;100.00
29169;BME280;16219;42.864;23.360;2022-11-30T06:07:41;96094.75;;;4.52;100.00
29169;BME280;16219;42.864;23.360;2022-11-30T06:10:09;96096.59;;;4.46;100.00
29169;BME280;16219;42.864;23.360;2022-11-30T06:12:38;96092.41;;;4.50;100.00
29169;BME280;16219;42.864;23.360;2022-11-30T06:15:06;96097.38;;;4.52;100.00
29169;BME280;16219;42.864;23.360;2022-11-30T06:17:33;96096.59;;;4.46;100.00
29169;BME280;16219;42.864;23.360;2022-11-30T06:20:03;96106.25;;;4.56;100.00
29169;BME280;16219;42.864;23.360;2022-11-30T06:22:30;96111.75;;;4.60;100.00
29169;BME280;16219;42.864;23.360;2022-11-30T06:24:57;96107.81;;;4.57;100.00
29169;BME280;16219;42.864;23.360;2022-11-30T06:27:24;96111.22;;;4.42;100.00
29169;BME280;16219;42.864;23.360;2022-11-30T06:29:52;96112.78;;;4.54;100.00
29169;BME280;16219;42.864;23.360;2022-11-30T06:32:19;96115.91;;;4.61;100.00
29169;BME280;16219;42.864;23.360;2022-11-30T06:34:47;96104.66;;;4.50;100.00
29169;BME280;16219;42.864;23.360;2022-11-30T06:37:13;96127.94;;;4.57;100.00
29169;BME280;16219;42.864;23.360;2022-11-30T06:39:40;96119.31;;;4.61;100.00
29169;BME280;16219;42.864;23.360;2022-11-30T06:42:08;96124.00;;;4.64;100.00
29169;BME280;16219;42.864;23.360;2022-11-30T06:44:35;96125.81;;;4.59;100.00
29169;BME280;16219;42.864;23.360;2022-11-30T06:47:03;96119.84;;;4.63;100.00
29169;BME280;16219;42.864;23.360;2022-11-30T06:49:30;96110.16;;;4.64;100.00
29169;BME280;16219;42.864;23.360;2022-11-30T06:51:57;96116.16;;;4.69;100.00
29169;BME280;16219;42.864;23.360;2022-11-30T06:54:24;96107.53;;;4.64;100.00
29169;BME280;16219;42.864;23.360;2022-11-30T06:56:51;96113.81;;;4.68;100.00
29169;BME280;16219;42.864;23.360;2022-11-30T06:59:18;96118.00;;;4.64;100.00
29169;BME280;16219;42.864;23.360;2022-11-30T07:01:45;96117.75;;;4.55;100.00
29169;BME280;16219;42.864;23.360;2022-11-30T07:04:14;96126.88;;;4.58;100.00
29169;BME280;16219;42.864;23.360;2022-11-30T07:06:41;96120.88;;;4.67;100.00
29169;BME280;16219;42.864;23.360;2022-11-30T07:09:08;96126.34;;;4.61;100.00
29169;BME280;16219;42.864;23.360;2022-11-30T07:11:37;96124.00;;;4.64;100.00
29169;BME280;16219;42.864;23.360;2022-11-30T07:14:05;96123.19;;;4.74;100.00
29169;BME280;16219;42.864;23.360;2022-11-30T07:16:32;96113.28;;;4.76;100.00
29169;BME280;16219;42.864;23.360;2022-11-30T07:18:59;96116.41;;;4.78;100.00
29169;BME280;16219;42.864;23.360;2022-11-30T07:21:27;96116.94;;;4.80;100.00
29169;BME280;16219;42.864;23.360;2022-11-30T07:23:54;96116.41;;;4.73;100.00
29169;BME280;16219;42.864;23.360;2022-11-30T07:26:39;96126.88;;;4.73;100.00
29169;BME280;16219;42.864;23.360;2022-11-30T07:29:06;96124.78;;;4.65;100.00
29169;BME280;16219;42.864;23.360;2022-11-30T07:31:33;96120.06;;;4.62;100.00
29169;BME280;16219;42.864;23.360;2022-11-30T07:34:03;96132.09;;;4.73;100.00
29169;BME280;16219;42.864;23.360;2022-11-30T07:36:33;96132.09;;;4.78;100.00
29169;BME280;16219;42.864;23.360;2022-11-30T07:39:01;96134.69;;;4.83;100.00
29169;BME280;16219;42.864;23.360;2022-11-30T07:41:28;96132.59;;;4.85;100.00
29169;BME280;16219;42.864;23.360;2022-11-30T07:43:56;96131.03;;;4.89;100.00
29169;BME280;16219;42.864;23.360;2022-11-30T07:46:24;96127.88;;;4.97;100.00
29169;BME280;16219;42.864;23.360;2022-11-30T07:48:51;96119.50;;;4.95;100.00
29169;BME280;16219;42.864;23.360;2022-11-30T07:51:20;96111.19;;;4.73;100.00
29169;BME280;16219;42.864;23.360;2022-11-30T07:53:49;96112.78;;;4.64;100.00
29169;BME280;16219;42.864;23.360;2022-11-30T07:56:17;96121.63;;;4.73;100.00
29169;BME280;16219;42.864;23.360;2022-11-30T07:58:45;96118.50;;;4.76;100.00
29169;BME280;16219;42.864;23.360;2022-11-30T08:01:15;96124.75;;;4.85;100.00
29169;BME280;16219;42.864;23.360;2022-11-30T08:03:42;96123.16;;;4.94;100.00
29169;BME280;16219;42.864;23.360;2022-11-30T08:06:11;96123.69;;;5.01;100.00
29169;BME280;16219;42.864;23.360;2022-11-30T08:08:40;96123.13;;;5.05;100.00
29169;BME280;16219;42.864;23.360;2022-11-30T08:11:11;96119.97;;;5.13;100.00
29169;BME280;16219;42.864;23.360;2022-11-30T08:13:39;96120.78;;;5.03;100.00
29169;BME280;16219;42.864;23.360;2022-11-30T08:16:07;96125.22;;;5.03;100.00
29169;BME280;16219;42.864;23.360;2022-11-30T08:18:35;96113.53;;;4.85;100.00
29169;BME280;16219;42.864;23.360;2022-11-30T08:21:04;96130.97;;;5.05;100.00
29169;BME280;16219;42.864;23.360;2022-11-30T08:23:33;96128.88;;;4.96;100.00
29169;BME280;16219;42.864;23.360;2022-11-30T08:26:02;96125.78;;;4.89;100.00
29169;BME280;16219;42.864;23.360;2022-11-30T08:28:32;96133.06;;;5.03;100.00
29169;BME280;16219;42.864;23.360;2022-11-30T08:31:00;96136.72;;;5.12;100.00
29169;BME280;16219;42.864;23.360;2022-11-30T08:33:28;96136.69;;;5.17;100.00
29169;BME280;16219;42.864;23.360;2022-11-30T08:36:04;96131.97;;;5.24;100.00
29169;BME280;16219;42.864;23.360;2022-11-30T08:38:31;96133.00;;;5.28;100.00
29169;BME280;16219;42.864;23.360;2022-11-30T08:40:58;96132.44;;;5.36;100.00
29169;BME280;16219;42.864;23.360;2022-11-30T08:43:26;96128.81;;;5.27;100.00
29169;BME280;16219;42.864;23.360;2022-11-30T08:45:55;96126.72;;;5.29;100.00
29169;BME280;16219;42.864;23.360;2022-11-30T08:48:22;96132.94;;;5.38;100.00
29169;BME280;16219;42.864;23.360;2022-11-30T08:50:49;96132.41;;;5.41;100.00
29169;BME280;16219;42.864;23.360;2022-11-30T08:53:17;96136.09;;;5.40;100.00
29169;BME280;16219;42.864;23.360;2022-11-30T08:55:54;96133.19;;;5.42;100.00
29169;BME280;16219;42.864;23.360;2022-11-30T08:58:21;96133.19;;;5.42;100.00
29169;BME280;16219;42.864;23.360;2022-11-30T09:00:48;96125.06;;;5.48;100.00
29169;BME280;16219;42.864;23.360;2022-11-30T09:03:16;96125.56;;;5.50;100.00
29169;BME280;16219;42.864;23.360;2022-11-30T09:05:43;96127.22;;;5.36;100.00
29169;BME280;16219;42.864;23.360;2022-11-30T09:08:10;96126.16;;;5.37;100.00
29169;BME280;16219;42.864;23.360;2022-11-30T09:10:37;96133.78;;;5.29;100.00
29169;BME280;16219;42.864;23.360;2022-11-30T09:13:05;96126.72;;;5.24;100.00
29169;BME280;16219;42.864;23.360;2022-11-30T09:15:32;96132.47;;;5.26;100.00
29169;BME280;16219;42.864;23.360;2022-11-30T09:17:59;96124.16;;;5.09;100.00
29169;BME280;16219;42.864;23.360;2022-11-30T09:20:27;96129.91;;;5.16;100.00
29169;BME280;16219;42.864;23.360;2022-11-30T09:22:54;96130.41;;;5.13;100.00
29169;BME280;16219;42.864;23.360;2022-11-30T09:25:24;96129.38;;;5.14;100.00
29169;BME280;16219;42.864;23.360;2022-11-30T09:27:51;96135.88;;;5.21;100.00
29169;BME280;16219;42.864;23.360;2022-11-30T09:30:19;96138.25;;;5.23;100.00
29169;BME280;16219;42.864;23.360;2022-11-30T09:32:46;96135.41;;;5.09;100.00
29169;BME280;16219;42.864;23.360;2022-11-30T09:35:13;96139.84;;;5.09;100.00
29169;BME280;16219;42.864;23.360;2022-11-30T09:37:41;96143.50;;;5.08;100.00
29169;BME280;16219;42.864;23.360;2022-11-30T09:40:10;96117.38;;;5.03;100.00
29169;BME280;16219;42.864;23.360;2022-11-30T09:42:44;96149.25;;;5.15;100.00
29169;BME280;16219;42.864;23.360;2022-11-30T09:45:18;96151.34;;;5.13;100.00
29169;BME280;16219;42.864;23.360;2022-11-30T09:48:22;96152.88;;;5.24;100.00
29169;BME280;16219;42.864;23.360;2022-11-30T09:50:52;96147.94;;;5.17;100.00
29169;BME280;16219;42.864;23.360;2022-11-30T09:53:25;96145.84;;;5.09;100.00
29169;BME280;16219;42.864;23.360;2022-11-30T09:55:55;96145.13;;;4.98;100.00
29169;BME280;16219;42.864;23.360;2022-11-30T09:58:28;96150.34;;;4.98;100.00
29169;BME280;16219;42.864;23.360;2022-11-30T10:00:59;96140.13;;;5.02;100.00
29169;BME280;16219;42.864;23.360;2022-11-30T10:03:26;96146.09;;;5.13;100.00
29169;BME280;16219;42.864;23.360;2022-11-30T10:05:58;96138.78;;;5.15;100.00
29169;BME280;16219;42.864;23.360;2022-11-30T10:08:49;96136.44;;;5.13;100.00
29169;BME280;16219;42.864;23.360;2022-11-30T10:11:31;96142.69;;;5.28;100.00
29169;BME280;16219;42.864;23.360;2022-11-30T10:14:17;96137.69;;;5.26;100.00
29169;BME280;16219;42.864;23.360;2022-11-30T10:16:54;96134.03;;;5.22;100.00
29169;BME280;16219;42.864;23.360;2022-11-30T10:19:38;96129.28;;;5.39;100.00
29169;BME280;16219;42.864;23.360;2022-11-30T10:22:12;96118.84;;;5.29;100.00
29169;BME280;16219;42.864;23.360;2022-11-30T10:25:02;96103.22;;;5.14;100.00
29169;BME280;16219;42.864;23.360;2022-11-30T10:27:43;96114.16;;;5.26;100.00
29169;BME280;16219;42.864;23.360;2022-11-30T10:30:16;96124.41;;;5.12;100.00
29169;BME280;16219;42.864;23.360;2022-11-30T10:32:49;96102.19;;;5.05;100.00
29169;BME280;16219;42.864;23.360;2022-11-30T10:35:22;96117.81;;;5.25;100.00
29169;BME280;16219;42.864;23.360;2022-11-30T10:37:53;96114.16;;;5.26;100.00
29169;BME280;16219;42.864;23.360;2022-11-30T10:40:31;96099.59;;;5.05;100.00
29169;BME280;16219;42.864;23.360;2022-11-30T10:43:08;96113.22;;;4.96;100.00
29169;BME280;16219;42.864;23.360;2022-11-30T10:45:45;96101.69;;;5.03;100.00
29169;BME280;16219;42.864;23.360;2022-11-30T10:48:15;96077.72;;;4.75;100.00
29169;BME280;16219;42.864;23.360;2022-11-30T10:50:44;96104.00;;;5.09;100.00
29169;BME280;16219;42.864;23.360;2022-11-30T10:53:12;96107.66;;;5.13;100.00
29169;BME280;16219;42.864;23.360;2022-11-30T10:55:42;96112.09;;;5.18;100.00
29169;BME280;16219;42.864;23.360;2022-11-30T10:58:18;96108.75;;;5.02;100.00
29169;BME280;16219;42.864;23.360;2022-11-30T11:00:52;96103.22;;;5.09;100.00
29169;BME280;16219;42.864;23.360;2022-11-30T11:03:22;96096.69;;;5.11;100.00
29169;BME280;16219;42.864;23.360;2022-11-30T11:06:02;96080.25;;;5.00;100.00
29169;BME280;16219;42.864;23.360;2022-11-30T11:08:30;96074.75;;;5.07;100.00
29169;BME280;16219;42.864;23.360;2022-11-30T11:10:59;96100.78;;;5.38;100.00
29169;BME280;16219;42.864;23.360;2022-11-30T11:13:37;96097.84;;;5.49;100.00
29169;BME280;16219;42.864;23.360;2022-11-30T11:16:06;96095.94;;;5.60;100.00
29169;BME280;16219;42.864;23.360;2022-11-30T11:18:34;96085.69;;;5.69;100.00
29169;BME280;16219;42.864;23.360;2022-11-30T11:21:04;96074.13;;;5.75;100.00
29169;BME280;16219;42.864;23.360;2022-11-30T11:23:33;96067.34;;;5.69;100.00
29169;BME280;16219;42.864;23.360;2022-11-30T11:26:03;96070.41;;;5.81;100.00
29169;BME280;16219;42.864;23.360;2022-11-30T11:28:31;96068.88;;;5.80;100.00
29169;BME280;16219;42.864;23.360;2022-11-30T11:31:14;96075.38;;;5.88;100.00
29169;BME280;16219;42.864;23.360;2022-11-30T11:33:49;96072.69;;;5.98;100.00
29169;BME280;16219;42.864;23.360;2022-11-30T11:36:24;96071.84;;;6.08;100.00
29169;BME280;16219;42.864;23.360;2022-11-30T11:38:52;96076.28;;;6.07;100.00
29169;BME280;16219;42.864;23.360;2022-11-30T11:41:23;96073.66;;;6.07;100.00
29169;BME280;16219;42.864;23.360;2022-11-30T11:43:58;96063.09;;;5.83;100.00
29169;BME280;16219;42.864;23.360;2022-11-30T11:46:27;96078.22;;;5.91;100.00
29169;BME280;16219;42.864;23.360;2022-11-30T11:48:56;96076.19;;;5.83;100.00
29169;BME280;16219;42.864;23.360;2022-11-30T11:51:28;96077.31;;;5.67;100.00
29169;BME280;16219;42.864;23.360;2022-11-30T11:53:57;96084.13;;;5.68;100.00
29169;BME280;16219;42.864;23.360;2022-11-30T11:56:28;96089.88;;;5.65;100.00
29169;BME280;16219;42.864;23.360;2022-11-30T11:58:58;96085.25;;;5.57;100.00
29169;BME280;16219;42.864;23.360;2022-11-30T12:01:37;96094.59;;;5.68;100.00
29169;BME280;16219;42.864;23.360;2022-11-30T12:04:19;96082.31;;;5.63;100.00
29169;BME280;16219;42.864;23.360;2022-11-30T12:06:51;96086.03;;;5.52;100.00
29169;BME280;16219;42.864;23.360;2022-11-30T12:09:24;96095.19;;;5.55;100.00
29169;BME280;16219;42.864;23.360;2022-11-30T12:11:55;96101.22;;;5.55;100.00
29169;BME280;16219;42.864;23.360;2022-11-30T12:14:24;96102.56;;;5.42;100.00
29169;BME280;16219;42.864;23.360;2022-11-30T12:17:02;96099.44;;;5.45;100.00
29169;BME280;16219;42.864;23.360;2022-11-30T12:19:39;96103.00;;;5.60;100.00
29169;BME280;16219;42.864;23.360;2022-11-30T12:22:19;96106.09;;;5.72;100.00
29169;BME280;16219;42.864;23.360;2022-11-30T12:25:12;96105.59;;;5.65;100.00
29169;BME280;16219;42.864;23.360;2022-11-30T12:27:48;96109.63;;;5.47;100.00
29169;BME280;16219;42.864;23.360;2022-11-30T12:30:20;96086.91;;;5.37;100.00
29169;BME280;16219;42.864;23.360;2022-11-30T12:33:10;96111.72;;;5.45;100.00
29169;BME280;16219;42.864;23.360;2022-11-30T12:35:44;96105.72;;;5.44;100.00
29169;BME280;16219;42.864;23.360;2022-11-30T12:38:21;96117.22;;;5.43;100.00
29169;BME280;16219;42.864;23.360;2022-11-30T12:40:57;96123.47;;;5.53;100.00
29169;BME280;16219;42.864;23.360;2022-11-30T12:43:34;96118.28;;;5.42;100.00
29169;BME280;16219;42.864;23.360;2022-11-30T12:46:08;96089.09;;;5.20;100.00
29169;BME280;16219;42.864;23.360;2022-11-30T12:48:43;96105.22;;;5.37;100.00
29169;BME280;16219;42.864;23.360;2022-11-30T12:51:19;96102.16;;;5.20;100.00
29169;BME280;16219;42.864;23.360;2022-11-30T12:53:53;96112.91;;;5.18;100.00
29169;BME280;16219;42.864;23.360;2022-11-30T12:56:29;96120.47;;;5.20;100.00
29169;BME280;16219;42.864;23.360;2022-11-30T12:59:14;96103.22;;;5.09;100.00
29169;BME280;16219;42.864;23.360;2022-11-30T13:02:00;96112.38;;;5.11;100.00
29169;BME280;16219;42.864;23.360;2022-11-30T13:04:36;96116.84;;;5.00;100.00
29169;BME280;16219;42.864;23.360;2022-11-30T13:07:09;96117.38;;;5.03;100.00